の過去48時間の天気

Eureka

現在時刻: 1/22 21:27 CST (1/23 03:27 UTC) 以下の時間は現地時間です。

過去48時間のMETAR気象情報
時間 風向 風速(m/s) 視程 気温(℃) 湿度(%) 気圧(hPa) 天気現象
22 21:00 2 10km以上 -42 65 1009.1
22 20:00 不定 1 10km以上 -41 58 1008.9
22 19:00 東北東 2 10km以上 -42 65 1008.6
22 18:00 2 10km以上 -41 58 1008.2
22 17:00 1 10km以上 -41 65 1008
22 16:00 東北東 1 10km以上 -41 65 1007.8
22 15:00 2 10km以上 -39 66 1007.3
22 14:00 東南東 2 10km以上 -41 65 1006.9
22 13:00 不定 1 10km以上 -39 66 1006.6
22 12:00 東北東 2 10km以上 -41 65 1006.5
22 11:00 東南東 3 10km以上 -40 65 1006.3
22 10:00 東南東 3 10km以上 -39 66 1006.5
22 09:00 東北東 2 10km以上 -40 65 1006.6
22 08:00 南東 3 10km以上 -40 65 1006.7
22 07:00 静穏 0 10km以上 -38 66 1006.7
22 06:00 2 10km以上 -39 66 1007.1
22 05:00 不定 1 10km以上 -40 65 1007.8
22 04:00 南南東 3 10km以上 -39 66 1008.2
22 03:00 不定 1 10km以上 -39 66 1008.3
22 02:00 東北東 2 10km以上 -40 65 1008.7
22 01:00 不定 1 10km以上 -40 65 1008.9
22 00:00 不定 1 10km以上 -38 66 1009.5
21 21:00 静穏 0 10km以上 -40 65 1011.5
21 20:00 不定 1 10km以上 -38 66 1012.2
21 19:00 東北東 2 10km以上 -41 65 1012.6
21 18:00 不定 1 10km以上 -40 65 1013.2 細氷
21 17:00 東北東 2 10km以上 -42 65 1014 細氷
21 16:32 2 10km以上 -41 65 1014.3 細氷
21 16:00 1 10km以上 -40 65 1014.5
21 15:00 南南東 3 10km以上 -41 65 1014.7
21 14:00 2 10km以上 -42 65 1014.8
CWEU 230300Z 10003KT 15SM SKC M42/M46 A2979 RMK LAST STFD OBS/NEXT 230600Z SLP091
CWEU 230200Z VRB02KT 15SM SKC M41/M46 A2978 RMK SLP089
CWEU 230100Z 07003KT 15SM SKC M42/M46 A2977 RMK SLP086
CWEU 230000Z 09003KT 15SM SKC M41/M46 A2976 RMK SLP082
CWEU 222300Z 10002KT 15SM SKC M41/M45 A2975 RMK SLP080
CWEU 222200Z 07002KT 15SM SKC M41/M45 A2975 RMK SLP078
CWEU 222100Z 17003KT 030V180 15SM SKC M39/M43 A2973 RMK SLP073
CWEU 222000Z 12003KT 15SM SKC M41/M45 A2972 RMK SLP069
CWEU 221900Z VRB02KT 15SM SKC M39/M43 A2971 RMK SLP066
CWEU 221800Z 06004KT 020V140 15SM FEW130 M41/M45 A2971 RMK AC1 AC TR SLP065
CWEU 221700Z 12005KT 15SM FEW130 M40/M44 A2970 RMK AC1 AC TR SLP063
CWEU 221600Z 12006KT 15SM SCT130 M39/M43 A2971 RMK AC3 SLP065
CWEU 221500Z 07004KT 15SM BKN130 M40/M44 A2971 RMK AC6 SLP066
CWEU 221400Z 14005KT 15SM SCT150 M40/M44 A2972 RMK AC3 SLP067
CWEU 221300Z 00000KT 15SM SCT150 M38/M42 A2972 RMK AC3 SLP067
CWEU 221200Z 08003KT 15SM SKC M39/M43 A2973 RMK SLP071
CWEU 221100Z VRB02KT 15SM SKC M40/M44 A2975 RMK SLP078
CWEU 221000Z 15005KT 15SM SKC M39/M43 A2976 RMK SLP082
CWEU 220900Z VRB02KT 15SM SKC M39/M43 A2976 RMK SLP083
CWEU 220800Z 06003KT 15SM SKC M40/M44 A2978 RMK SLP087
CWEU 220700Z VRB02KT 15SM SKC M40/M44 A2978 RMK SLP089
CWEU 220600Z VRB02KT 15SM SKC M38/M42 A2980 RMK SLP095
CWEU 220300Z 00000KT 15SM SKC M40/M44 A2986 RMK LAST STFD OBS/NEXT 220600Z SLP115
CWEU 220200Z VRB02KT 15SM SKC M38/M42 A2988 RMK SLP122
CWEU 220100Z 06003KT 15SM SKC M41/M45 A2989 RMK SLP126
CWEU 220000Z VRB02KT 10SM IC SKC M40/M44 A2991 RMK SLP132
CWEU 212300Z 07003KT 060V120 10SM IC SKC M42/M46 A2993 RMK SLP140
CWEU 212232Z 08003KT 15SM IC SKC M41/M45 A2994 RMK SLP143
CWEU 212200Z 10002KT 15SM SKC M40/M44 A2995 RMK SLP145
CWEU 212100Z 15005KT 15SM SKC M41/M45 A2995 RMK SLP147
CWEU 212000Z 10003KT 040V110 15SM SKC M42/M46 A2996 RMK SLP148